Zagreb — 9AA5910 — position and weather

sailwx.info

Track history (hours):
 
Tides and Currents Weather Stations Pressure Air Temp Water Temp Dewpoint Dewpoint Depression Visibility Wind Speed Wind Dir Waves Ship Positions

Zagreb

Last reported at 2016-May-30 06:31 UTC. Time now 2016-May-30 06:51 UTC.
Position N 53°07' E 008°43'.

Length 229 m; draft 9.2 m.

Type: Cargo ship. MMSI: 238249000.

Date/timePositionNaut miles runAvg speedWind from/ knotsBaromVisibWave heightAir tempDewpointWater temp
2016-May-30 06:31N 53°07' E 008°43'0 0.0
2016-May-30 05:31N 53°07' E 008°43'0 0.0
2016-May-30 04:31N 53°07' E 008°43'0 0.0
2016-May-30 03:31N 53°07' E 008°43'0 0.0
2016-May-30 02:31N 53°07' E 008°43'0 0.0
2016-May-30 01:31N 53°07' E 008°43'0 0.0
2016-May-30 00:31N 53°07' E 008°43'0 0.0
2016-May-29 23:31N 53°07' E 008°43'0 0.0
2016-May-29 22:31N 53°07' E 008°43'0 0.0
2016-May-29 21:31N 53°07' E 008°43'0 0.0
2016-May-29 20:31N 53°07' E 008°43'0 0.1
2016-May-29 19:34N 53°07' E 008°43'1 0.5
2016-May-29 18:34N 53°07' E 008°43'0 0.4
2016-May-29 17:34N 53°07' E 008°42'7 6.8
2016-May-29 16:33N 53°11' E 008°33'9 9.5
2016-May-29 15:33N 53°20' E 008°30'9 8.5
2016-May-29 14:33N 53°29' E 008°30'0 0.2
2016-May-29 13:33N 53°29' E 008°30'0 0.0
2016-May-29 12:33N 53°29' E 008°30'0 0.0
2016-May-29 11:33N 53°29' E 008°30'0 0.0
2016-May-29 10:33N 53°29' E 008°30'0 0.0
2016-May-29 09:33N 53°29' E 008°30'0 0.0
2016-May-29 08:30N 53°29' E 008°30'0 0.0
2016-May-29 07:30N 53°29' E 008°30'0 0.0
2016-May-29 06:33N 53°29' E 008°30'0 0.0
2016-May-29 05:33N 53°29' E 008°30'0 0.0
2016-May-29 04:30N 53°29' E 008°30'0 0.0
2016-May-29 03:33N 53°29' E 008°30'0 0.0
2016-May-29 02:33N 53°29' E 008°30'0 0.0
2016-May-29 01:33N 53°29' E 008°30'0 0.0
2016-May-29 00:30N 53°29' E 008°30'0 0.0
2016-May-28 23:33N 53°29' E 008°30'0 0.0
2016-May-28 22:33N 53°29' E 008°30'0 0.0
2016-May-28 21:33N 53°29' E 008°30'0 0.0
2016-May-28 20:33N 53°29' E 008°30'0 0.0
2016-May-28 19:33N 53°29' E 008°30'0 0.0
2016-May-28 18:33N 53°29' E 008°30'0 0.0
2016-May-28 17:33N 53°29' E 008°30'0 0.0
2016-May-28 16:33N 53°29' E 008°30'0 0.0
2016-May-28 15:32N 53°29' E 008°30'0 0.0
2016-May-28 14:33N 53°29' E 008°30'0 0.0
2016-May-28 13:33N 53°29' E 008°30'0 0.0
2016-May-28 12:33N 53°29' E 008°30'0 0.0
2016-May-28 11:27N 53°29' E 008°30'0 0.0
2016-May-28 10:30N 53°29' E 008°30'0 0.0
2016-May-28 09:33N 53°29' E 008°30'0 0.0
2016-May-28 08:33N 53°29' E 008°30'0 0.0
2016-May-28 07:33N 53°29' E 008°30'0 0.0
2016-May-28 06:33N 53°29' E 008°30'0 0.0
2016-May-28 05:32N 53°29' E 008°30'0 0.0
2016-May-28 04:33N 53°29' E 008°30'0 0.0
2016-May-28 03:33N 53°29' E 008°30'0 0.0
2016-May-28 02:32N 53°29' E 008°30'0 0.0
2016-May-28 01:33N 53°29' E 008°30'0 0.0
2016-May-28 00:32N 53°29' E 008°30'0 0.0
2016-May-27 23:32N 53°29' E 008°30'0 0.0
2016-May-27 22:33N 53°29' E 008°30'0 0.0
2016-May-27 21:33N 53°29' E 008°30'0 0.0
2016-May-27 20:29N 53°29' E 008°30'0 0.0
2016-May-27 19:30N 53°29' E 008°30'0 0.0
2016-May-27 18:32N 53°29' E 008°30'0 0.0
2016-May-27 17:32N 53°29' E 008°30'0 0.0
2016-May-27 16:32N 53°29' E 008°30'0 0.0
2016-May-27 15:32N 53°29' E 008°30'4 4.0
2016-May-27 14:33N 53°32' E 008°34'1110.7
2016-May-27 13:33N 53°40' E 008°22'1212.3
2016-May-27 12:33N 53°49' E 008°07'1010.2
2016-May-27 11:33N 53°52' E 007°51'1010.2
2016-May-27 10:33N 53°58' E 007°37'1212.4
2016-May-27 09:33N 54°09' E 007°27'3 2.9
2016-May-27 08:33N 54°12' E 007°24'6 6.2
2016-May-27 07:33N 54°17' E 007°19'1111.5
2016-May-27 06:33N 54°27' E 007°10'1111.3
2016-May-27 05:33N 54°37' E 007°00'1211.6
2016-May-27 04:33N 54°49' E 007°00'1211.7
2016-May-27 03:33N 55°00' E 007°01'1211.7
2016-May-27 02:33N 55°12' E 007°02'1212.1
2016-May-27 01:33N 55°24' E 006°60'1312.5
2016-May-27 00:32N 55°37' E 006°60'1212.4
2016-May-26 23:33N 55°49' E 007°00'4711.7
2016-May-26 19:32N 56°33' E 007°27'1111.6
2016-May-26 18:33N 56°44' E 007°35'5 4.9
2016-May-26 17:32N 56°49' E 007°38'1211.9
2016-May-26 16:32N 56°38' E 007°28'38 9.4
2016-May-26 12:26N 57°09' E 008°08'1112.4
2016-May-26 11:32N 57°18' E 008°21'5312.1
2016-May-26 07:11N 57°50' E 009°40'1312.3
2016-May-26 06:09N 57°49' E 010°04'813.1
2016-May-26 05:33N 57°49' E 010°19'1312.8
2016-May-26 04:33N 57°49' E 010°42'1010.4
2016-May-26 03:33N 57°42' E 010°58'1312.7
2016-May-26 02:33N 57°33' E 011°15'1212.2
2016-May-26 01:33N 57°24' E 011°29'1212.2
2016-May-26 00:33N 57°12' E 011°37'1212.0
2016-May-25 23:33N 57°01' E 011°43'1212.0
2016-May-25 22:33N 56°50' E 011°50'1110.9
2016-May-25 21:33N 56°39' E 011°47'6810.8
2016-May-25 15:12N 55°39' E 010°47'1911.2
2016-May-25 13:33N 55°23' E 011°02'1111.0
2016-May-25 12:33N 55°12' E 011°05'1110.7
2016-May-25 11:33N 55°02' E 010°60'1211.8
2016-May-25 10:33N 54°51' E 010°50'1111.4
2016-May-25 09:33N 54°40' E 010°50'1211.8
2016-May-25 08:33N 54°36' E 011°09'1212.0
2016-May-25 07:33N 54°31' E 011°28'1211.9
2016-May-25 06:33N 54°26' E 011°47'1212.1
2016-May-25 05:33N 54°26' E 012°07'1211.6
2016-May-25 04:33N 54°36' E 012°17'1212.4
2016-May-25 03:33N 54°43' E 012°35'10 9.8
2016-May-25 02:33N 54°48' E 012°50'8 7.6
2016-May-25 01:33N 54°51' E 013°02'1211.9
2016-May-25 00:34N 54°55' E 013°21'1212.0
2016-May-24 23:33N 54°59' E 013°41'1212.1
2016-May-24 22:34N 55°03' E 014°01'1211.7
2016-May-24 21:33N 55°12' E 014°15'1212.0
2016-May-24 20:33N 55°21' E 014°28'1211.7
2016-May-24 19:34N 55°29' E 014°44'1212.2
2016-May-24 18:33N 55°34' E 015°03'1212.1
2016-May-24 17:33N 55°39' E 015°22'1212.3
2016-May-24 16:33N 55°42' E 015°44'1212.2
2016-May-24 15:34N 55°45' E 016°04'1212.0
2016-May-24 14:32N 55°49' E 016°25'2612.9
2016-May-24 12:33N 55°55' E 017°10'1211.9
2016-May-24 11:34N 55°58' E 017°30'1311.7
2016-May-24 10:25N 56°03' E 017°52'25412.0
2016-May-23 13:17N 59°29' E 022°28'1112.1
2016-May-23 12:22N 59°33' E 022°48'1012.4
2016-May-23 11:33N 59°36' E 023°08'1212.3
2016-May-23 10:33N 59°40' E 023°31'1312.5
2016-May-23 09:33N 59°43' E 023°55'6312.5
2016-May-23 04:33N 59°57' E 025°56'1212.5
2016-May-23 03:33N 59°60' E 026°20'1212.1
2016-May-23 02:33N 60°01' E 026°44'1211.9
2016-May-23 01:33N 60°01' E 027°08'1212.3
2016-May-23 00:33N 60°07' E 027°29'1111.6
2016-May-22 23:33N 60°12' E 027°51'1212.4
2016-May-22 22:33N 60°08' E 028°15'9 9.0
2016-May-22 21:33N 60°04' E 028°30'8 8.2
2016-May-22 20:33N 59°56' E 028°34'1111.0
2016-May-22 19:33N 59°46' E 028°25'5 4.6
2016-May-22 18:33N 59°41' E 028°25'0 0.0
2016-May-22 17:26N 59°41' E 028°25'0 0.0
2016-May-22 16:26N 59°41' E 028°25'0 0.0
2016-May-22 15:32N 59°41' E 028°25'0 0.0
2016-May-22 14:32N 59°41' E 028°25'0 0.0
2016-May-22 13:32N 59°41' E 028°25'0 0.0
2016-May-22 12:32N 59°41' E 028°25'0 0.0
2016-May-22 11:32N 59°41' E 028°25'0 0.0
2016-May-22 10:32N 59°41' E 028°25'0 0.0
2016-May-22 09:23N 59°41' E 028°25'0 0.0
2016-May-22 08:23N 59°41' E 028°25'0 0.0
2016-May-22 07:23N 59°41' E 028°25'0 0.0
2016-May-22 06:26N 59°41' E 028°25'0 0.0
2016-May-22 05:29N 59°41' E 028°25'0 0.0
2016-May-22 04:29N 59°41' E 028°25'0 0.0
2016-May-22 03:29N 59°41' E 028°25'0 0.2
2016-May-22 02:29N 59°41' E 028°25'0 0.0
2016-May-22 01:32N 59°41' E 028°25'0 0.0
2016-May-22 00:32N 59°41' E 028°25'0 0.0
2016-May-21 23:32N 59°41' E 028°25'0 0.0
2016-May-21 22:32N 59°41' E 028°25'0 0.0
2016-May-21 21:32N 59°41' E 028°25'0 0.0
2016-May-21 20:32N 59°41' E 028°25'0 0.0
2016-May-21 19:32N 59°41' E 028°25'0 0.0
2016-May-21 18:20N 59°41' E 028°25'0 0.0
2016-May-21 17:26N 59°41' E 028°25'0 0.0
2016-May-21 16:26N 59°41' E 028°25'0 0.0
2016-May-21 15:26N 59°41' E 028°25'0 0.0
2016-May-21 14:26N 59°41' E 028°25'0 0.0
2016-May-21 13:26N 59°41' E 028°25'0 0.0
2016-May-21 12:29N 59°41' E 028°25'0 0.0
2016-May-21 11:29N 59°41' E 028°25'0 0.0
2016-May-21 10:32N 59°41' E 028°25'0 0.0
2016-May-21 09:32N 59°41' E 028°25'0 0.0
2016-May-21 08:32N 59°41' E 028°25'0 0.0
2016-May-21 07:32N 59°41' E 028°25'0 0.0
2016-May-21 06:32N 59°41' E 028°25'0 0.0
2016-May-21 05:32N 59°41' E 028°25'0 0.0
2016-May-21 04:32N 59°41' E 028°25'0 0.0
2016-May-21 03:23N 59°41' E 028°25'0 0.0
2016-May-21 02:23N 59°41' E 028°25'0 0.0
2016-May-21 01:26N 59°41' E 028°25'0 0.0
2016-May-21 00:26N 59°41' E 028°25'0 0.0
2016-May-20 23:29N 59°41' E 028°25'0 0.0
2016-May-20 22:26N 59°41' E 028°25'0 0.0
2016-May-20 21:29N 59°41' E 028°25'0 0.0
2016-May-20 20:32N 59°41' E 028°25'0 0.0
2016-May-20 19:32N 59°41' E 028°25'1 1.3
2016-May-20 18:34N 59°42' E 028°24'1111.2
2016-May-20 17:34N 59°53' E 028°29'4 3.3
2016-May-20 16:25N 59°54' E 028°37'0 0.0
2016-May-20 15:25N 59°54' E 028°37'0 0.0
2016-May-20 14:28N 59°54' E 028°37'0 0.1
2016-May-20 13:13N 59°54' E 028°37'0 0.2
2016-May-20 12:31N 59°54' E 028°37'0 0.1
2016-May-20 11:31N 59°54' E 028°36'0 0.0
2016-May-20 10:31N 59°54' E 028°36'0 0.0
2016-May-20 09:31N 59°54' E 028°36'0 0.0
2016-May-20 08:28N 59°54' E 028°36'0 0.0
2016-May-20 07:31N 59°54' E 028°36'  
Track history (hours):
 
Tides and Currents Weather Stations Pressure Air Temp Water Temp Dewpoint Dewpoint Depression Visibility Wind Speed Wind Dir Waves Ship Positions

Zagreb

Last reported at 2016-May-30 06:31 UTC. Time now 2016-May-30 06:51 UTC.
Position N 53°07' E 008°43'.

Length 229 m; draft 9.2 m.

Type: Cargo ship. MMSI: 238249000.

Date/timePositionNaut miles runAvg speedWind from/ knotsBaromVisibWave heightAir tempDewpointWater temp
2016-May-30 06:31N 53°07' E 008°43'0 0.0
2016-May-30 05:31N 53°07' E 008°43'0 0.0
2016-May-30 04:31N 53°07' E 008°43'0 0.0
2016-May-30 03:31N 53°07' E 008°43'0 0.0
2016-May-30 02:31N 53°07' E 008°43'0 0.0
2016-May-30 01:31N 53°07' E 008°43'0 0.0
2016-May-30 00:31N 53°07' E 008°43'0 0.0
2016-May-29 23:31N 53°07' E 008°43'0 0.0
2016-May-29 22:31N 53°07' E 008°43'0 0.0
2016-May-29 21:31N 53°07' E 008°43'0 0.0
2016-May-29 20:31N 53°07' E 008°43'0 0.1
2016-May-29 19:34N 53°07' E 008°43'1 0.5
2016-May-29 18:34N 53°07' E 008°43'0 0.4
2016-May-29 17:34N 53°07' E 008°42'7 6.8
2016-May-29 16:33N 53°11' E 008°33'9 9.5
2016-May-29 15:33N 53°20' E 008°30'9 8.5
2016-May-29 14:33N 53°29' E 008°30'0 0.2
2016-May-29 13:33N 53°29' E 008°30'0 0.0
2016-May-29 12:33N 53°29' E 008°30'0 0.0
2016-May-29 11:33N 53°29' E 008°30'0 0.0
2016-May-29 10:33N 53°29' E 008°30'0 0.0
2016-May-29 09:33N 53°29' E 008°30'0 0.0
2016-May-29 08:30N 53°29' E 008°30'0 0.0
2016-May-29 07:30N 53°29' E 008°30'0 0.0
2016-May-29 06:33N 53°29' E 008°30'0 0.0
2016-May-29 05:33N 53°29' E 008°30'0 0.0
2016-May-29 04:30N 53°29' E 008°30'0 0.0
2016-May-29 03:33N 53°29' E 008°30'0 0.0
2016-May-29 02:33N 53°29' E 008°30'0 0.0
2016-May-29 01:33N 53°29' E 008°30'0 0.0
2016-May-29 00:30N 53°29' E 008°30'0 0.0
2016-May-28 23:33N 53°29' E 008°30'0 0.0
2016-May-28 22:33N 53°29' E 008°30'0 0.0
2016-May-28 21:33N 53°29' E 008°30'0 0.0
2016-May-28 20:33N 53°29' E 008°30'0 0.0
2016-May-28 19:33N 53°29' E 008°30'0 0.0
2016-May-28 18:33N 53°29' E 008°30'0 0.0
2016-May-28 17:33N 53°29' E 008°30'0 0.0
2016-May-28 16:33N 53°29' E 008°30'0 0.0
2016-May-28 15:32N 53°29' E 008°30'0 0.0
2016-May-28 14:33N 53°29' E 008°30'0 0.0
2016-May-28 13:33N 53°29' E 008°30'0 0.0
2016-May-28 12:33N 53°29' E 008°30'0 0.0
2016-May-28 11:27N 53°29' E 008°30'0 0.0
2016-May-28 10:30N 53°29' E 008°30'0 0.0
2016-May-28 09:33N 53°29' E 008°30'0 0.0
2016-May-28 08:33N 53°29' E 008°30'0 0.0
2016-May-28 07:33N 53°29' E 008°30'0 0.0
2016-May-28 06:33N 53°29' E 008°30'0 0.0
2016-May-28 05:32N 53°29' E 008°30'0 0.0
2016-May-28 04:33N 53°29' E 008°30'0 0.0
2016-May-28 03:33N 53°29' E 008°30'0 0.0
2016-May-28 02:32N 53°29' E 008°30'0 0.0
2016-May-28 01:33N 53°29' E 008°30'0 0.0
2016-May-28 00:32N 53°29' E 008°30'0 0.0
2016-May-27 23:32N 53°29' E 008°30'0 0.0
2016-May-27 22:33N 53°29' E 008°30'0 0.0
2016-May-27 21:33N 53°29' E 008°30'0 0.0
2016-May-27 20:29N 53°29' E 008°30'0 0.0
2016-May-27 19:30N 53°29' E 008°30'0 0.0
2016-May-27 18:32N 53°29' E 008°30'0 0.0
2016-May-27 17:32N 53°29' E 008°30'0 0.0
2016-May-27 16:32N 53°29' E 008°30'0 0.0
2016-May-27 15:32N 53°29' E 008°30'4 4.0
2016-May-27 14:33N 53°32' E 008°34'1110.7
2016-May-27 13:33N 53°40' E 008°22'1212.3
2016-May-27 12:33N 53°49' E 008°07'1010.2
2016-May-27 11:33N 53°52' E 007°51'1010.2
2016-May-27 10:33N 53°58' E 007°37'1212.4
2016-May-27 09:33N 54°09' E 007°27'3 2.9
2016-May-27 08:33N 54°12' E 007°24'6 6.2
2016-May-27 07:33N 54°17' E 007°19'1111.5
2016-May-27 06:33N 54°27' E 007°10'1111.3
2016-May-27 05:33N 54°37' E 007°00'1211.6
2016-May-27 04:33N 54°49' E 007°00'1211.7
2016-May-27 03:33N 55°00' E 007°01'1211.7
2016-May-27 02:33N 55°12' E 007°02'1212.1
2016-May-27 01:33N 55°24' E 006°60'1312.5
2016-May-27 00:32N 55°37' E 006°60'1212.4
2016-May-26 23:33N 55°49' E 007°00'4711.7
2016-May-26 19:32N 56°33' E 007°27'1111.6
2016-May-26 18:33N 56°44' E 007°35'5 4.9
2016-May-26 17:32N 56°49' E 007°38'1211.9
2016-May-26 16:32N 56°38' E 007°28'38 9.4
2016-May-26 12:26N 57°09' E 008°08'1112.4
2016-May-26 11:32N 57°18' E 008°21'5312.1
2016-May-26 07:11N 57°50' E 009°40'1312.3
2016-May-26 06:09N 57°49' E 010°04'813.1
2016-May-26 05:33N 57°49' E 010°19'1312.8
2016-May-26 04:33N 57°49' E 010°42'1010.4
2016-May-26 03:33N 57°42' E 010°58'1312.7
2016-May-26 02:33N 57°33' E 011°15'1212.2
2016-May-26 01:33N 57°24' E 011°29'1212.2
2016-May-26 00:33N 57°12' E 011°37'1212.0
2016-May-25 23:33N 57°01' E 011°43'1212.0
2016-May-25 22:33N 56°50' E 011°50'1110.9
2016-May-25 21:33N 56°39' E 011°47'6810.8
2016-May-25 15:12N 55°39' E 010°47'1911.2
2016-May-25 13:33N 55°23' E 011°02'1111.0
2016-May-25 12:33N 55°12' E 011°05'1110.7
2016-May-25 11:33N 55°02' E 010°60'1211.8
2016-May-25 10:33N 54°51' E 010°50'1111.4
2016-May-25 09:33N 54°40' E 010°50'1211.8
2016-May-25 08:33N 54°36' E 011°09'1212.0
2016-May-25 07:33N 54°31' E 011°28'1211.9
2016-May-25 06:33N 54°26' E 011°47'1212.1
2016-May-25 05:33N 54°26' E 012°07'1211.6
2016-May-25 04:33N 54°36' E 012°17'1212.4
2016-May-25 03:33N 54°43' E 012°35'10 9.8
2016-May-25 02:33N 54°48' E 012°50'8 7.6
2016-May-25 01:33N 54°51' E 013°02'1211.9
2016-May-25 00:34N 54°55' E 013°21'1212.0
2016-May-24 23:33N 54°59' E 013°41'1212.1
2016-May-24 22:34N 55°03' E 014°01'1211.7
2016-May-24 21:33N 55°12' E 014°15'1212.0
2016-May-24 20:33N 55°21' E 014°28'1211.7
2016-May-24 19:34N 55°29' E 014°44'1212.2
2016-May-24 18:33N 55°34' E 015°03'1212.1
2016-May-24 17:33N 55°39' E 015°22'1212.3
2016-May-24 16:33N 55°42' E 015°44'1212.2
2016-May-24 15:34N 55°45' E 016°04'1212.0
2016-May-24 14:32N 55°49' E 016°25'2612.9
2016-May-24 12:33N 55°55' E 017°10'1211.9
2016-May-24 11:34N 55°58' E 017°30'1311.7
2016-May-24 10:25N 56°03' E 017°52'25412.0
2016-May-23 13:17N 59°29' E 022°28'1112.1
2016-May-23 12:22N 59°33' E 022°48'1012.4
2016-May-23 11:33N 59°36' E 023°08'1212.3
2016-May-23 10:33N 59°40' E 023°31'1312.5
2016-May-23 09:33N 59°43' E 023°55'6312.5
2016-May-23 04:33N 59°57' E 025°56'1212.5
2016-May-23 03:33N 59°60' E 026°20'1212.1
2016-May-23 02:33N 60°01' E 026°44'1211.9
2016-May-23 01:33N 60°01' E 027°08'1212.3
2016-May-23 00:33N 60°07' E 027°29'1111.6
2016-May-22 23:33N 60°12' E 027°51'1212.4
2016-May-22 22:33N 60°08' E 028°15'9 9.0
2016-May-22 21:33N 60°04' E 028°30'8 8.2
2016-May-22 20:33N 59°56' E 028°34'1111.0
2016-May-22 19:33N 59°46' E 028°25'5 4.6
2016-May-22 18:33N 59°41' E 028°25'0 0.0
2016-May-22 17:26N 59°41' E 028°25'0 0.0
2016-May-22 16:26N 59°41' E 028°25'0 0.0
2016-May-22 15:32N 59°41' E 028°25'0 0.0
2016-May-22 14:32N 59°41' E 028°25'0 0.0
2016-May-22 13:32N 59°41' E 028°25'0 0.0
2016-May-22 12:32N 59°41' E 028°25'0 0.0
2016-May-22 11:32N 59°41' E 028°25'0 0.0
2016-May-22 10:32N 59°41' E 028°25'0 0.0
2016-May-22 09:23N 59°41' E 028°25'0 0.0
2016-May-22 08:23N 59°41' E 028°25'0 0.0
2016-May-22 07:23N 59°41' E 028°25'0 0.0
2016-May-22 06:26N 59°41' E 028°25'0 0.0
2016-May-22 05:29N 59°41' E 028°25'0 0.0
2016-May-22 04:29N 59°41' E 028°25'0 0.0
2016-May-22 03:29N 59°41' E 028°25'0 0.2
2016-May-22 02:29N 59°41' E 028°25'0 0.0
2016-May-22 01:32N 59°41' E 028°25'0 0.0
2016-May-22 00:32N 59°41' E 028°25'0 0.0
2016-May-21 23:32N 59°41' E 028°25'0 0.0
2016-May-21 22:32N 59°41' E 028°25'0 0.0
2016-May-21 21:32N 59°41' E 028°25'0 0.0
2016-May-21 20:32N 59°41' E 028°25'0 0.0
2016-May-21 19:32N 59°41' E 028°25'0 0.0
2016-May-21 18:20N 59°41' E 028°25'0 0.0
2016-May-21 17:26N 59°41' E 028°25'0 0.0
2016-May-21 16:26N 59°41' E 028°25'0 0.0
2016-May-21 15:26N 59°41' E 028°25'0 0.0
2016-May-21 14:26N 59°41' E 028°25'0 0.0
2016-May-21 13:26N 59°41' E 028°25'0 0.0
2016-May-21 12:29N 59°41' E 028°25'0 0.0
2016-May-21 11:29N 59°41' E 028°25'0 0.0
2016-May-21 10:32N 59°41' E 028°25'0 0.0
2016-May-21 09:32N 59°41' E 028°25'0 0.0
2016-May-21 08:32N 59°41' E 028°25'0 0.0
2016-May-21 07:32N 59°41' E 028°25'0 0.0
2016-May-21 06:32N 59°41' E 028°25'0 0.0
2016-May-21 05:32N 59°41' E 028°25'0 0.0
2016-May-21 04:32N 59°41' E 028°25'0 0.0
2016-May-21 03:23N 59°41' E 028°25'0 0.0
2016-May-21 02:23N 59°41' E 028°25'0 0.0
2016-May-21 01:26N 59°41' E 028°25'0 0.0
2016-May-21 00:26N 59°41' E 028°25'0 0.0
2016-May-20 23:29N 59°41' E 028°25'0 0.0
2016-May-20 22:26N 59°41' E 028°25'0 0.0
2016-May-20 21:29N 59°41' E 028°25'0 0.0
2016-May-20 20:32N 59°41' E 028°25'0 0.0
2016-May-20 19:32N 59°41' E 028°25'1 1.3
2016-May-20 18:34N 59°42' E 028°24'1111.2
2016-May-20 17:34N 59°53' E 028°29'4 3.3
2016-May-20 16:25N 59°54' E 028°37'0 0.0
2016-May-20 15:25N 59°54' E 028°37'0 0.0
2016-May-20 14:28N 59°54' E 028°37'0 0.1
2016-May-20 13:13N 59°54' E 028°37'0 0.2
2016-May-20 12:31N 59°54' E 028°37'0 0.1
2016-May-20 11:31N 59°54' E 028°36'0 0.0
2016-May-20 10:31N 59°54' E 028°36'0 0.0
2016-May-20 09:31N 59°54' E 028°36'0 0.0
2016-May-20 08:28N 59°54' E 028°36'0 0.0
2016-May-20 07:31N 59°54' E 028°36'  

Dump ship's entire track history